• Join FlightAware (Why Join?)
  • Login
  • US Flag 
Rudolph Flight #1: Arrived! 
06:03PM EST


 

Airport Tracker/Info


-or-


 

Live Flight TrackerFlight Track Log ✈ DAL1903 ✈ 12-Apr-2013 ✈ KLGA - KSRQ

Flight Track Log - Related Links

Times and Time Zones

All times are in EDT time to prevent confusion due to time zone crossing. See the DAL1903 flight status page for this flight to view local times or setup timezone preferences in your user account.

Time Position Orientation Groundspeed Altitude Reporting Facility
EDT Latitude Longitude Course Direction KTS MPH feet Rate Location/Type
11:23AM 40.7667 -73.8333 66° East 164 189 1,400  Level New York TRACON
11:24AM 40.7833 -73.7833 66° East 220 253 3,300 1,740 Climbing New York TRACON
11:25AM 40.8500 -73.7833 360° North 284 327 5,100 2,220 Climbing New York TRACON
11:26AM 40.8833 -73.8500 303° West 258 297 7,600 2,340 Climbing New York TRACON
11:27AM 40.9000 -73.9333 285° West 244 281 9,600 1,800 Climbing New York TRACON
11:29AM 40.8386 -74.0653 238° Southwest 274 315 12,500 1,920 Climbing New York Center
11:30AM 40.7919 -74.1672 239° Southwest 290 334 14,900 1,380 Climbing New York Center
11:31AM 40.7453 -74.2661 238° Southwest 300 345 15,400 1,020 Climbing New York Center
11:32AM 40.7031 -74.3597 239° Southwest 329 379 17,000 780 Climbing New York Center
11:33AM 40.6492 -74.4772 239° Southwest 343 395 17,000 660 Level New York Center
11:34AM 40.6044 -74.5786 240° Southwest 348 400 18,400 1,560 Climbing New York Center
11:35AM 40.5483 -74.6986 238° Southwest 353 406 20,200 1,620 Climbing New York Center
11:36AM 40.4944 -74.8128 238° Southwest 353 406 21,700 1,260 Climbing New York Center
11:37AM 40.4425 -74.9269 239° Southwest 359 413 22,800 1,080 Climbing New York Center
11:38AM 40.3786 -75.0294 231° Southwest 364 419 23,900 600 Climbing New York Center
11:39AM 40.3081 -75.1311 228° Southwest 370 426 24,000  Climbing New York Center
11:40AM 40.2375 -75.2328 228° Southwest 381 438 24,000  Level New York Center
11:41AM 40.1606 -75.3392 227° Southwest 391 450 24,000  Level New York Center
11:42AM 40.0856 -75.4456 227° Southwest 401 461 24,000  Level New York Center
11:43AM 40.0103 -75.5517 227° Southwest 406 467 24,000  Level New York Center
11:44AM 39.9331 -75.6572 226° Southwest 406 467 24,000  Level New York Center
11:45AM 39.8617 -75.7686 230° Southwest 406 467 24,000  Level New York Center
11:46AM 39.7944 -75.8800 232° Southwest 406 467 24,000  Level New York Center
11:47AM 39.7228 -75.9908 230° Southwest 406 467 24,000  Level New York Center
11:49AM 39.5808 -76.2108 230° Southwest 419 482 24,000  Level Washington Center
11:50AM 39.5094 -76.3206 230° Southwest 414 476 24,000  Level Washington Center
11:51AM 39.4378 -76.4300 230° Southwest 407 468 24,000  Level Washington Center
11:52AM 39.3681 -76.5419 231° Southwest 401 461 24,000  Level Washington Center
11:53AM 39.2983 -76.6564 232° Southwest 401 461 24,000  Level Washington Center
11:54AM 39.2308 -76.7678 232° Southwest 407 468 24,000  Level Washington Center
11:55AM 39.1547 -76.8736 227° Southwest 399 459 24,000  Level Washington Center
11:56AM 39.0889 -76.9742 230° Southwest 399 459 24,000  Level Washington Center
11:57AM 39.0106 -77.0769 226° Southwest 404 465 24,000  Level Washington Center
11:58AM 38.9258 -77.1711 221° Southwest 404 465 24,000  Level Washington Center
11:59AM 38.8414 -77.2653 221° Southwest 404 465 24,000  Level Washington Center
12:00PM 38.7544 -77.3539 218° Southwest 399 459 24,000  Level Washington Center
12:01PM 38.6675 -77.4503 221° Southwest 404 465 24,000  Level Washington Center
12:02PM 38.5742 -77.5542 221° Southwest 410 472 24,000  Level Washington Center
12:03PM 38.4914 -77.6447 221° Southwest 403 464 24,000  Level Washington Center
12:04PM 38.4064 -77.7378 221° Southwest 403 464 24,000  Level Washington Center
12:05PM 38.3214 -77.8281 220° Southwest 403 464 24,000  Level Washington Center
12:06PM 38.2383 -77.9153 220° Southwest 403 464 24,000  Level Washington Center
12:07PM 38.1511 -78.0078 220° Southwest 408 470 24,000  Level Washington Center
12:08PM 38.0678 -78.0975 220° Southwest 408 470 24,000  Level Washington Center
12:09PM 38.0017 -78.1689 220° Southwest 408 470 24,000  Level Washington Center
12:10PM 37.9036 -78.2631 217° Southwest 408 470 24,000  Level Washington Center
12:11PM 37.8144 -78.3414 215° Southwest 403 464 24,000  Level Washington Center
12:12PM 37.7269 -78.4275 218° Southwest 398 458 24,000  Level Washington Center
12:13PM 37.6372 -78.5106 216° Southwest 398 458 24,000  Level Washington Center
12:14PM 37.5369 -78.6036 216° Southwest 404 465 24,000  Level Washington Center
12:15PM 37.4492 -78.6892 218° Southwest 404 465 24,000  Level Washington Center
12:16PM 37.3553 -78.7742 216° Southwest 404 465 24,000  Level Washington Center
12:17PM 37.2694 -78.8567 217° Southwest 404 465 24,000  Level Washington Center
12:18PM 37.1797 -78.9389 216° Southwest 404 465 24,000  Level Washington Center
12:19PM 37.1003 -79.0136 217° Southwest 404 465 24,000  Level Washington Center
12:20PM 37.0125 -79.0956 217° Southwest 399 459 24,000  Level Washington Center
12:21PM 36.9244 -79.1772 217° Southwest 399 459 24,000  Level Washington Center
12:22PM 36.8344 -79.2589 216° Southwest 399 459 24,000  Level Washington Center
12:23PM 36.7464 -79.3375 216° Southwest 399 459 24,000  Level Washington Center
12:24PM 36.6494 -79.4286 217° Southwest 399 459 24,000  Level Washington Center
12:25PM 36.5636 -79.5097 217° Southwest 399 459 24,000  Level Washington Center
12:26PM 36.4753 -79.5906 216° Southwest 399 459 24,000  Level Washington Center
12:28PM 36.2839 -79.7553 215° Southwest 400 460 24,000  Level Atlanta Center
12:29PM 36.1972 -79.8397 218° Southwest 395 455 24,000  Level Atlanta Center
12:30PM 36.0958 -79.9272 215° Southwest 395 455 24,000  Level Atlanta Center
12:31PM 36.0042 -79.9936 210° Southwest 395 455 24,000  Level Atlanta Center
12:32PM 35.8994 -80.0447 202° Southwest 395 455 24,000  Level Atlanta Center
12:33PM 35.7989 -80.0958 202° Southwest 395 455 24,000  Level Atlanta Center
12:34PM 35.7044 -80.1439 202° Southwest 400 460 24,000  Level Atlanta Center
12:35PM 35.5894 -80.2056 204° Southwest 407 468 24,000  Level Atlanta Center
12:36PM 35.4969 -80.2506 202° Southwest 407 468 24,000  Level Atlanta Center
12:37PM 35.3944 -80.3039 203° Southwest 407 468 24,000  Level Atlanta Center
12:38PM 35.2917 -80.3542 202° Southwest 407 468 24,000  Level Atlanta Center
12:39PM 35.1867 -80.4072 202° Southwest 407 468 24,000  Level Atlanta Center
12:40PM 35.0675 -80.4658 202° Southwest 412 474 24,000  Level Atlanta Center
12:42PM 34.8353 -80.5808 202° Southwest 420 483 24,000  Level Jacksonville Center
12:43PM 34.7217 -80.6369 202° Southwest 412 474 24,000  Level Jacksonville Center
12:44PM 34.6350 -80.6822 203° Southwest 412 474 24,000  Level Jacksonville Center
12:45PM 34.4983 -80.7436 200° South 431 496 24,000  Level Jacksonville Center
12:46PM 34.3928 -80.7939 201° Southwest 431 496 24,000  Level Jacksonville Center
12:47PM 34.2811 -80.8519 203° Southwest 428 493 24,000  Level Jacksonville Center
12:48PM 34.1756 -80.9047 202° Southwest 428 493 24,000  Level Jacksonville Center
12:49PM 34.0656 -80.9572 202° Southwest 428 493 24,000  Level Jacksonville Center
12:50PM 33.9581 -81.0072 201° Southwest 428 493 24,000  Level Jacksonville Center
12:51PM 33.8503 -81.0594 202° Southwest 428 493 24,000  Level Jacksonville Center
12:52PM 33.7469 -81.1267 208° Southwest 433 498 24,000  Level Jacksonville Center
12:53PM 33.6433 -81.1961 209° Southwest 427 491 24,000  Level Jacksonville Center
12:54PM 33.5400 -81.2628 208° Southwest 427 491 24,000  Level Jacksonville Center
12:55PM 33.4364 -81.3269 207° Southwest 427 491 24,000  Level Jacksonville Center
12:56PM 33.3369 -81.3883 207° Southwest 422 486 24,000  Level Jacksonville Center
12:57PM 33.2417 -81.4497 208° Southwest 422 486 24,000  Level Jacksonville Center
12:58PM 33.1319 -81.5208 208° Southwest 422 486 24,000  Level Jacksonville Center
12:59PM 33.0283 -81.5844 207° Southwest 422 486 24,000  Level Jacksonville Center
01:00PM 32.9225 -81.6503 208° Southwest 422 486 24,000  Level Jacksonville Center
01:01PM 32.8331 -81.7058 208° Southwest 422 486 24,000  Level Jacksonville Center
01:02PM 32.7314 -81.7714 208° Southwest 422 486 24,000  Level Jacksonville Center
01:03PM 32.6172 -81.8444 208° Southwest 427 491 24,000  Level Jacksonville Center
01:04PM 32.5239 -81.9022 208° Southwest 427 491 24,000  Level Jacksonville Center
01:05PM 32.4094 -81.9747 208° Southwest 427 491 24,000  Level Jacksonville Center
01:06PM 32.3056 -82.0397 208° Southwest 427 491 24,000  Level Jacksonville Center
01:07PM 32.2142 -82.0969 208° Southwest 427 491 24,000  Level Jacksonville Center
01:08PM 32.0997 -82.1642 206° Southwest 417 480 24,000  Level Jacksonville Center
01:09PM 32.0061 -82.2214 207° Southwest 417 480 24,000  Level Jacksonville Center
01:10PM 31.8936 -82.2881 207° Southwest 412 474 24,000  Level Jacksonville Center
01:11PM 31.7936 -82.3500 208° Southwest 412 474 24,000  Level Jacksonville Center
01:12PM 31.6939 -82.4117 208° Southwest 412 474 24,000  Level Jacksonville Center
01:13PM 31.5917 -82.4731 207° Southwest 412 474 24,000  Level Jacksonville Center
01:14PM 31.5083 -82.5611 222° Southwest 412 474 24,000  Level Jacksonville Center
01:15PM 31.4481 -82.6758 238° Southwest 401 461 24,000  Level Jacksonville Center
01:16PM 31.3919 -82.7878 240° Southwest 406 467 24,000  Level Jacksonville Center
01:17PM 31.3378 -82.8975 240° Southwest 406 467 24,000  Level Jacksonville Center
01:18PM 31.2750 -83.0117 237° Southwest 406 467 24,000  Level Jacksonville Center
01:19PM 31.2183 -83.1208 239° Southwest 406 467 24,000 60 Level Jacksonville Center
01:20PM 31.1597 -83.2325 238° Southwest 406 467 24,200 480 Climbing Jacksonville Center
01:21PM 31.0656 -83.3097 215° Southwest 404 465 25,000 360 Climbing Jacksonville Center
01:22PM 30.9733 -83.3603 205° Southwest 404 465 25,000  Level Jacksonville Center
01:23PM 30.8625 -83.4081 200° South 410 472 25,000  Level Jacksonville Center
01:24PM 30.7558 -83.4583 202° Southwest 415 478 25,000  Level Jacksonville Center
01:25PM 30.6472 -83.5108 203° Southwest 420 483 25,000  Level Jacksonville Center
01:26PM 30.5236 -83.5653 201° Southwest 425 489 25,000  Level Jacksonville Center
01:27PM 30.4147 -83.6153 202° Southwest 425 489 25,000  Level Jacksonville Center
01:28PM 30.2958 -83.6239 184° South 425 489 25,000  Level Jacksonville Center
01:29PM 30.1728 -83.6014 171° South 430 495 25,000  Level Jacksonville Center
01:30PM 30.0517 -83.5764 170° South 442 509 25,000  Level Jacksonville Center
01:31PM 29.9267 -83.5517 170° South 453 521 25,000  Level Jacksonville Center
01:32PM 29.8014 -83.5269 170° South 453 521 25,000  Level Jacksonville Center
01:33PM 29.6764 -83.5022 170° South 458 527 25,000  Level Jacksonville Center
01:34PM 29.5533 -83.4775 170° South 458 527 25,000 -60 Level Jacksonville Center
01:35PM 29.4300 -83.4697 177° South 458 527 24,900  Descending Jacksonville Center
01:36PM 29.3175 -83.4761 183° South 434 499 25,000  Climbing Jacksonville Center
01:37PM 29.2025 -83.4825 183° South 419 482 25,000  Level Jacksonville Center
01:38PM 29.0878 -83.4889 183° South 414 476 25,000  Level Jacksonville Center
01:39PM 28.9750 -83.4978 184° South 414 476 25,000  Level Jacksonville Center
01:40PM 28.8600 -83.5067 184° South 414 476 25,000 -1,080 Level Jacksonville Center
01:41PM 28.7475 -83.4681 163° South 414 476 22,900 -2,100 Descending Jacksonville Center
01:42PM 28.6478 -83.3942 147° Southeast 407 468 20,800 -2,160 Descending Jacksonville Center
01:45PM 28.4167 -83.2333 149° Southeast 395 455 15,700 -2,100 Descending Tampa TRACON
01:46PM 28.3333 -83.1667 145° Southeast 382 440 13,800 -1,560 Descending Tampa TRACON
01:47PM 28.2500 -83.1000 145° Southeast 376 433 12,600 -1,320 Descending Tampa TRACON
01:48PM 28.1500 -83.0500 156° South 368 423 11,200 -840 Descending Tampa TRACON
01:49PM 28.0667 -83.0167 161° South 320 368 11,000 -120 Descending Tampa TRACON
01:50PM 28.0000 -83.0167 180° South 265 305 11,000 -360 Level Tampa TRACON
01:51PM 27.9167 -83.0167 180° South 265 305 10,300 -1,320 Descending Tampa TRACON
01:52PM 27.8500 -83.0167 180° South 273 314 8,400 -1,740 Descending Tampa TRACON
01:53PM 27.7667 -82.9833 161° South 281 323 6,900 -1,500 Descending Tampa TRACON
01:54PM 27.7167 -82.9167 130° Southeast 276 318 5,500 -960 Descending Tampa TRACON
01:55PM 27.6667 -82.8667 138° Southeast 272 313 5,000 -300 Descending Tampa TRACON
01:56PM 27.6167 -82.8000 130° Southeast 262 302 5,000 -720 Level Tampa TRACON
01:57PM 27.5667 -82.7500 138° Southeast 258 297 3,600 -1,200 Descending Tampa TRACON
01:58PM 27.5167 -82.7000 138° Southeast 227 261 2,700 -840 Descending Tampa TRACON
01:59PM 27.4833 -82.6500 127° Southeast 194 223 2,000 -720 Descending Tampa TRACON
02:00PM 27.4500 -82.6167 138° Southeast 182 209 1,300 -780 Descending Tampa TRACON
02:01PM 27.4167 -82.5833 138° Southeast 147 169 500 -840 Descending Tampa TRACON